KCAR/CAR METAR and TAF weather

Enter ICAO airport designator
Station Type Date Time Source
KCAR METAR 2022/11/26 09:54 UTC NOAA

KCAR 260954Z AUTO 33016G26KT 10SM OVC019 M01/M04 A2958 RMK AO2 PK WND 33032/0905 SLP025 T10111044


Station Type Date Time Source
KCAR Decoded METAR 2022/11/26 09:54 UTC NOAA

CARIBOU MUNICIPAL AIRPORT, ME, United States (KCAR) 46-52N 68-01W 191M
Nov 26, 2022 - 04:54 AM EST / 2022.11.26 0954 UTC
Wind: from the NNW (330 degrees) at 18 MPH (16 KT) gusting to 30 MPH (26 KT):0
Visibility: 10 mile(s):0
Sky conditions: overcast
Temperature: 30.0 F (-1.1 C)
Windchill: 17 F (-8 C):1
Dew Point: 24.1 F (-4.4 C)
Relative Humidity: 78%
Pressure (altimeter): 29.58 in. Hg (1001 hPa)
ob: KCAR 260954Z AUTO 33016G26KT 10SM OVC019 M01/M04 A2958 RMK AO2 PK WND 33032/0905 SLP025 T10111044
cycle: 10

Station Type Date Time Source
KCAR TAF 2022/11/26 10:06 UTC NOAA

TAF
AMD KCAR 261003Z 2610/2706 32013G25KT P6SM BKN019 WS020/33045KT
FM261400 31012G23KT P6SM BKN035
FM261500 31012G22KT P6SM SCT070
FM262000 30009KT P6SM SCT090

Example: see airport list